Time;durP1;ratioP1;P1;durP2;ratioP2;P2;SDS_P1;SDS_P2;PMS_P1;PMS_P2;Temp;Humidity;BMP_temperature;BMP_pressure;BME280_temperature;BME280_humidity;BME280_pressure;Samples;Min_cycle;Max_cycle;Signal;HPM_P1;HPM_P2
2024/01/08 00:00:27;;;;;;;5.45;3.10;;;;;;;;;;5063517;28;20315;-80
2024/01/08 00:02:54;;;;;;;5.25;3.55;;;-0.90;99.90;;;;;;5060945;28;20322;-83
2024/01/08 00:05:21;;;;;;;7.80;4.65;;;-1.00;99.90;;;;;;5059964;28;20312;-82
2024/01/08 00:07:48;;;;;;;5.18;3.72;;;-0.80;99.90;;;;;;5050868;28;20303;-82
2024/01/08 00:10:15;;;;;;;7.22;4.50;;;-0.80;99.90;;;;;;5054787;28;20668;-83
2024/01/08 00:12:43;;;;;;;6.03;4.10;;;-0.90;99.90;;;;;;5054895;28;20310;-82
2024/01/08 00:15:11;;;;;;;8.57;4.20;;;-0.90;99.90;;;;;;5054584;28;20210;-82
2024/01/08 00:17:37;;;;;;;6.35;4.47;;;-0.80;99.90;;;;;;5063270;28;20239;-81
2024/01/08 00:20:05;;;;;;;5.03;2.90;;;-0.80;99.90;;;;;;5054037;28;20711;-81
2024/01/08 00:22:32;;;;;;;6.20;3.17;;;-1.00;99.90;;;;;;5053548;28;20887;-81
2024/01/08 00:24:59;;;;;;;5.57;3.83;;;0.10;99.90;;;;;;5053722;28;20207;-79
2024/01/08 00:27:26;;;;;;;5.65;3.40;;;-1.30;99.90;;;;;;5061830;28;20210;-82
2024/01/08 00:29:54;;;;;;;6.95;3.78;;;-1.00;99.90;;;;;;5052899;28;20263;-81
2024/01/08 00:32:21;;;;;;;7.60;3.60;;;-1.40;99.90;;;;;;5053397;28;20346;-81
2024/01/08 00:34:48;;;;;;;6.35;3.38;;;-1.00;99.90;;;;;;5053638;28;20302;-81
2024/01/08 00:37:14;;;;;;;4.82;3.20;;;-1.20;99.90;;;;;;5053862;28;20590;-81
2024/01/08 00:39:43;;;;;;;6.30;3.60;;;-1.10;99.90;;;;;;5061528;28;20250;-81
2024/01/08 00:42:10;;;;;;;8.43;3.42;;;-1.40;99.90;;;;;;5053363;28;20620;-81
2024/01/08 00:44:37;;;;;;;7.45;4.07;;;-1.20;99.90;;;;;;5053430;28;20297;-80
2024/01/08 00:47:05;;;;;;;5.38;3.70;;;-1.20;99.90;;;;;;5053369;28;20231;-80
2024/01/08 00:49:32;;;;;;;6.38;3.40;;;-1.20;99.90;;;;;;5052679;28;20202;-79
2024/01/08 00:51:59;;;;;;;4.93;2.90;;;;;;;;;;5052949;28;20259;-80
2024/01/08 00:54:26;;;;;;;5.75;3.95;;;-1.40;99.90;;;;;;5061328;28;20272;-80
2024/01/08 00:56:53;;;;;;;6.53;4.60;;;-1.30;99.90;;;;;;5052633;28;20231;-79
2024/01/08 00:59:20;;;;;;;5.50;3.95;;;-1.50;99.90;;;;;;5052659;28;20220;-80
2024/01/08 01:01:46;;;;;;;6.10;4.38;;;-1.50;99.90;;;;;;5052275;28;20202;-80
2024/01/08 01:04:14;;;;;;;7.05;3.80;;;-1.40;99.90;;;;;;5055444;28;20589;-80
2024/01/08 01:06:42;;;;;;;5.22;3.45;;;-1.40;99.90;;;;;;5060112;28;20270;-81
2024/01/08 01:09:08;;;;;;;7.22;3.75;;;-1.80;99.90;;;;;;5061205;28;20208;-80
2024/01/08 01:11:35;;;;;;;6.80;5.15;;;;;;;;;;5069233;28;20236;-79
2024/01/08 01:14:03;;;;;;;4.30;3.50;;;-1.70;99.90;;;;;;5060961;28;20214;-80
2024/01/08 01:16:30;;;;;;;6.07;3.35;;;-2.20;99.90;;;;;;5059398;28;20215;-81
2024/01/08 01:18:57;;;;;;;4.65;2.95;;;-1.80;99.90;;;;;;5060528;28;20593;-81
2024/01/08 01:21:27;;;;;;;4.88;3.55;;;-1.60;99.90;;;;;;5068782;28;20300;-81
2024/01/08 01:23:55;;;;;;;5.53;3.55;;;-1.80;99.90;;;;;;5059575;28;20273;-81
2024/01/08 01:26:21;;;;;;;6.47;4.10;;;-1.80;99.90;;;;;;5061109;28;20279;-81
2024/01/08 01:28:48;;;;;;;5.15;2.88;;;-2.30;99.90;;;;;;5060606;28;20241;-80
2024/01/08 01:31:15;;;;;;;5.38;3.40;;;-1.90;99.90;;;;;;5069542;28;20297;-81
2024/01/08 01:33:43;;;;;;;5.07;3.08;;;;;;;;;;5060293;28;20230;-81
2024/01/08 01:36:10;;;;;;;6.20;3.45;;;-2.00;99.90;;;;;;5070174;28;20866;-81
2024/01/08 01:38:38;;;;;;;5.95;3.67;;;-2.00;99.90;;;;;;5078023;28;20664;-80
2024/01/08 01:41:05;;;;;;;4.40;3.05;;;-1.90;99.90;;;;;;5085890;28;20233;-81
2024/01/08 01:43:33;;;;;;;4.85;2.67;;;-1.90;99.90;;;;;;5077532;28;20274;-81
2024/01/08 01:46:05;;;;;;;4.55;3.13;;;-1.90;99.90;;;;;;5076890;28;20201;-84
2024/01/08 01:48:32;;;;;;;5.85;3.30;;;-2.00;99.90;;;;;;5077337;28;20211;-81
2024/01/08 01:51:00;;;;;;;4.85;3.35;;;-1.80;99.90;;;;;;5076945;28;20217;-78
2024/01/08 01:53:28;;;;;;;4.85;3.20;;;-1.70;99.90;;;;;;5073087;28;20789;-79
2024/01/08 01:55:56;;;;;;;4.60;2.88;;;-1.50;99.90;;;;;;5061373;28;20292;-84
2024/01/08 01:58:24;;;;;;;5.30;3.53;;;;;;;;;;5060682;28;20201;-81
2024/01/08 02:00:52;;;;;;;5.72;3.20;;;-2.00;99.90;;;;;;5059451;28;20322;-81
2024/01/08 02:03:19;;;;;;;3.92;3.05;;;-1.70;99.90;;;;;;5062596;28;20227;-82
2024/01/08 02:05:47;;;;;;;5.63;3.47;;;-1.60;99.90;;;;;;5061896;28;20294;-83
2024/01/08 02:08:14;;;;;;;5.57;3.65;;;-1.50;99.90;;;;;;5060835;28;20706;-82
2024/01/08 02:10:42;;;;;;;4.15;2.55;;;;;;;;;;5059404;28;20247;-82
2024/01/08 02:13:10;;;;;;;5.75;3.60;;;-1.50;99.90;;;;;;5063360;28;20232;-83
2024/01/08 02:15:37;;;;;;;4.55;3.20;;;-1.50;99.90;;;;;;5059916;28;20290;-82
2024/01/08 02:18:04;;;;;;;4.85;3.28;;;-1.50;99.90;;;;;;5066362;28;20224;-80
2024/01/08 02:20:32;;;;;;;6.22;3.85;;;;;;;;;;5084859;28;20253;-79
2024/01/08 02:23:00;;;;;;;5.13;3.42;;;-1.30;99.90;;;;;;5076891;28;20284;-79
2024/01/08 02:25:30;;;;;;;5.57;3.75;;;-1.40;99.90;;;;;;5077116;28;20204;-82
2024/01/08 02:27:57;;;;;;;7.95;4.70;;;-1.20;99.90;;;;;;5062997;28;20220;-80
2024/01/08 02:30:24;;;;;;;8.30;4.35;;;-1.40;99.90;;;;;;5061200;28;20292;-81
2024/01/08 02:32:51;;;;;;;7.55;3.40;;;;;;;;;;5060736;28;20694;-81
2024/01/08 02:35:19;;;;;;;5.97;4.38;;;;;;;;;;5060844;28;20639;-82
2024/01/08 02:37:46;;;;;;;12.90;4.75;;;-1.40;99.90;;;;;;5067888;28;20246;-82
2024/01/08 02:40:15;;;;;;;5.45;4.05;;;-1.30;99.90;;;;;;5067826;28;20311;-81
2024/01/08 02:42:42;;;;;;;6.45;4.00;;;;;;;;;;5059791;28;20227;-82
2024/01/08 02:45:10;;;;;;;7.13;4.13;;;-1.20;99.90;;;;;;5065877;28;20316;-82
2024/01/08 02:47:40;;;;;;;7.18;4.35;;;-1.30;99.90;;;;;;5060760;28;20243;-83
2024/01/08 02:50:07;;;;;;;7.07;4.15;;;-1.20;99.90;;;;;;5061035;28;20204;-81
2024/01/08 02:52:35;;;;;;;4.03;2.72;;;-1.80;99.90;;;;;;5074492;28;20280;-80
2024/01/08 02:55:02;;;;;;;5.05;3.60;;;-1.30;99.90;;;;;;5074926;28;20212;-80
2024/01/08 02:57:31;;;;;;;5.53;3.80;;;-1.20;99.90;;;;;;5082326;28;20278;-80
2024/01/08 02:59:58;;;;;;;6.10;4.32;;;-1.10;99.90;;;;;;5074450;28;20266;-79
2024/01/08 03:02:26;;;;;;;7.47;4.05;;;-1.20;99.90;;;;;;5070902;28;20335;-82
2024/01/08 03:04:53;;;;;;;7.85;4.30;;;-1.30;99.90;;;;;;5059576;28;20295;-81
2024/01/08 03:07:20;;;;;;;5.28;3.58;;;-1.30;99.90;;;;;;5060102;28;20301;-81
2024/01/08 03:09:47;;;;;;;7.55;4.60;;;;;;;;;;5059863;28;20235;-81
2024/01/08 03:12:14;;;;;;;7.85;3.67;;;-1.30;99.90;;;;;;5058273;28;20224;-81
2024/01/08 03:14:44;;;;;;;10.07;4.65;;;-1.40;99.90;;;;;;5059671;28;20218;-81
2024/01/08 03:17:11;;;;;;;6.63;3.75;;;-0.90;99.90;;;;;;5059001;28;20204;-81
2024/01/08 03:19:38;;;;;;;6.18;3.90;;;;;;;;;;5059226;28;20289;-82
2024/01/08 03:22:05;;;;;;;6.25;4.30;;;-1.40;99.90;;;;;;5060918;28;20235;-81
2024/01/08 03:24:32;;;;;;;6.15;3.72;;;-1.40;99.90;;;;;;5061315;28;20293;-81
2024/01/08 03:26:59;;;;;;;7.07;5.32;;;-1.10;99.90;;;;;;5071082;28;20204;-80
2024/01/08 03:29:26;;;;;;;7.45;4.95;;;-1.20;99.90;;;;;;5070705;28;20230;-80
2024/01/08 03:31:55;;;;;;;7.60;3.83;;;-1.30;99.90;;;;;;5068537;28;20227;-80
2024/01/08 03:34:22;;;;;;;7.25;4.85;;;-1.30;99.90;;;;;;5069626;28;20205;-81
2024/01/08 03:36:49;;;;;;;6.50;3.95;;;-1.20;99.90;;;;;;5069767;28;20238;-81
2024/01/08 03:39:17;;;;;;;6.47;3.80;;;-1.20;99.90;;;;;;5061919;28;20295;-82
2024/01/08 03:41:44;;;;;;;7.60;5.00;;;-1.00;99.90;;;;;;5058020;28;20286;-82
2024/01/08 03:44:14;;;;;;;10.32;4.85;;;-1.10;99.90;;;;;;5058391;28;20307;-81
2024/01/08 03:46:42;;;;;;;14.93;4.80;;;-0.90;99.90;;;;;;5058556;28;20208;-81
2024/01/08 03:49:11;;;;;;;9.40;5.45;;;-1.00;99.90;;;;;;5058140;28;20202;-80
2024/01/08 03:51:38;;;;;;;8.48;4.68;;;-1.40;99.90;;;;;;5056726;28;20204;-82
2024/01/08 03:54:05;;;;;;;7.45;5.15;;;-1.20;99.90;;;;;;5064100;28;20206;-81
2024/01/08 03:56:32;;;;;;;9.35;6.43;;;-1.30;99.90;;;;;;5060860;28;20242;-81
2024/01/08 03:58:59;;;;;;;10.07;6.70;;;;;;;;;;5066659;28;20293;-83
2024/01/08 04:01:26;;;;;;;7.40;4.88;;;-1.20;99.90;;;;;;5057196;28;20257;-80
2024/01/08 04:03:52;;;;;;;9.48;5.30;;;-1.50;99.90;;;;;;5057459;28;20223;-82
2024/01/08 04:06:21;;;;;;;7.97;5.57;;;-1.40;99.90;;;;;;5062918;28;20206;-82
2024/01/08 04:08:48;;;;;;;8.00;5.32;;;;;;;;;;5059805;28;20212;-81
2024/01/08 04:11:14;;;;;;;11.60;6.15;;;-1.60;99.90;;;;;;5059037;28;20286;-83
2024/01/08 04:13:42;;;;;;;8.77;5.68;;;-1.60;99.90;;;;;;5059907;28;20319;-82
2024/01/08 04:16:08;;;;;;;12.45;5.13;;;-1.70;99.90;;;;;;5060350;28;20289;-81
2024/01/08 04:18:36;;;;;;;8.45;5.47;;;;;;;;;;5058594;28;20266;-79
2024/01/08 04:21:02;;;;;;;11.20;6.57;;;-1.50;99.90;;;;;;5059781;28;20289;-81
2024/01/08 04:23:31;;;;;;;8.60;5.05;;;-1.40;99.90;;;;;;5059258;28;20235;-84
2024/01/08 04:25:57;;;;;;;10.15;5.07;;;-2.10;99.90;;;;;;5059801;28;20296;-81
2024/01/08 04:28:24;;;;;;;11.85;6.10;;;-1.40;99.90;;;;;;5059518;28;20210;-81
2024/01/08 04:30:51;;;;;;;8.30;4.85;;;-1.30;99.90;;;;;;5067811;28;20298;-82
2024/01/08 04:33:18;;;;;;;9.85;5.30;;;;;;;;;;5059713;28;20776;-80
2024/01/08 04:35:45;;;;;;;6.10;5.03;;;-1.30;99.90;;;;;;5058799;28;20306;-83
2024/01/08 04:38:12;;;;;;;6.65;5.15;;;-1.50;99.90;;;;;;5054553;28;20893;-81
2024/01/08 04:40:41;;;;;;;10.32;6.13;;;-1.40;99.90;;;;;;5059381;28;20229;-81
2024/01/08 04:43:07;;;;;;;12.30;5.72;;;-1.30;99.90;;;;;;5062808;28;20310;-81
2024/01/08 04:45:35;;;;;;;11.13;6.97;;;;;;;;;;5062557;28;20236;-81
2024/01/08 04:48:03;;;;;;;10.15;6.35;;;-1.30;99.90;;;;;;5063164;28;20290;-82
2024/01/08 04:50:30;;;;;;;9.55;6.38;;;-1.80;99.90;;;;;;5062327;28;20218;-81
2024/01/08 04:52:58;;;;;;;7.13;4.90;;;-1.30;99.90;;;;;;5063115;28;20254;-80
2024/01/08 04:55:24;;;;;;;8.95;6.00;;;-1.40;99.90;;;;;;5063044;28;20296;-80
2024/01/08 04:57:52;;;;;;;9.27;5.80;;;-0.50;99.90;;;;;;5062709;28;20306;-82
2024/01/08 05:00:19;;;;;;;9.52;6.25;;;-1.00;99.90;;;;;;5062792;28;20217;-80
2024/01/08 05:02:46;;;;;;;9.38;6.10;;;-0.90;99.90;;;;;;5062068;28;20259;-81
2024/01/08 05:05:13;;;;;;;7.85;5.15;;;-0.20;99.90;;;;;;5062625;28;20207;-81
2024/01/08 05:07:40;;;;;;;10.05;5.60;;;-1.30;99.90;;;;;;5062190;28;20694;-81
2024/01/08 05:10:07;;;;;;;8.85;5.10;;;-1.20;99.90;;;;;;5062058;28;20203;-81
2024/01/08 05:12:34;;;;;;;11.70;5.90;;;-1.20;99.90;;;;;;5061395;28;20233;-81
2024/01/08 05:15:03;;;;;;;8.45;5.43;;;-1.20;99.90;;;;;;5056639;28;20208;-81
2024/01/08 05:17:30;;;;;;;10.32;5.90;;;-1.10;99.90;;;;;;5062616;28;20221;-81
2024/01/08 05:19:57;;;;;;;7.88;6.30;;;-1.10;99.90;;;;;;5061740;28;20674;-81
2024/01/08 05:22:24;;;;;;;10.35;5.60;;;-1.20;99.90;;;;;;5065027;28;20263;-80
2024/01/08 05:24:51;;;;;;;10.98;6.43;;;-1.10;99.90;;;;;;5062872;28;20298;-81
2024/01/08 05:27:17;;;;;;;8.77;5.38;;;-1.10;99.90;;;;;;5058470;28;20302;-81
2024/01/08 05:29:45;;;;;;;8.43;5.32;;;-1.00;99.90;;;;;;5060980;28;20216;-80
2024/01/08 05:32:13;;;;;;;8.98;5.82;;;-0.90;99.90;;;;;;5061565;28;20230;-82
2024/01/08 05:34:41;;;;;;;10.65;6.40;;;-1.10;99.90;;;;;;5060151;28;20308;-79
2024/01/08 05:37:08;;;;;;;9.80;6.35;;;-1.10;99.90;;;;;;5061012;28;20214;-79
2024/01/08 05:39:35;;;;;;;7.60;5.72;;;-1.20;99.90;;;;;;5060912;28;20246;-78
2024/01/08 05:42:02;;;;;;;10.52;6.82;;;-1.20;99.90;;;;;;5057791;28;20684;-81
2024/01/08 05:44:29;;;;;;;9.90;5.20;;;-1.20;99.90;;;;;;5060117;28;20211;-80
2024/01/08 05:46:56;;;;;;;8.93;6.05;;;-1.20;99.90;;;;;;5058851;28;20207;-79
2024/01/08 05:49:24;;;;;;;11.30;6.05;;;-1.20;99.90;;;;;;5059635;28;20303;-80
2024/01/08 05:51:51;;;;;;;10.98;6.97;;;-1.20;99.90;;;;;;5059302;28;20234;-79
2024/01/08 05:54:18;;;;;;;8.48;5.65;;;-1.10;99.90;;;;;;5066288;28;20202;-79
2024/01/08 05:56:45;;;;;;;10.02;6.03;;;-1.20;99.90;;;;;;5082664;28;20221;-80
2024/01/08 05:59:11;;;;;;;8.70;6.80;;;-1.20;99.90;;;;;;5075500;28;20237;-78
2024/01/08 06:01:39;;;;;;;8.57;5.68;;;-1.20;99.90;;;;;;5079000;28;20294;-78
2024/01/08 06:04:06;;;;;;;9.93;5.97;;;-1.20;99.90;;;;;;5064702;28;20225;-81
2024/01/08 06:06:34;;;;;;;13.63;6.57;;;-1.10;99.90;;;;;;5063233;28;20307;-80
2024/01/08 06:09:01;;;;;;;8.90;5.38;;;-1.10;99.90;;;;;;5062024;28;20208;-79
2024/01/08 06:11:29;;;;;;;11.07;7.15;;;-1.00;99.90;;;;;;5057701;28;20203;-79
2024/01/08 06:13:56;;;;;;;8.52;6.03;;;-1.10;99.90;;;;;;5057865;28;20303;-81
2024/01/08 06:16:22;;;;;;;7.68;5.80;;;-1.00;99.90;;;;;;5061699;28;20364;-81
2024/01/08 06:18:49;;;;;;;11.63;6.88;;;-1.00;99.90;;;;;;5054152;28;20243;-80
2024/01/08 06:21:17;;;;;;;9.50;6.00;;;-1.00;99.90;;;;;;5059051;28;20307;-80
2024/01/08 06:23:45;;;;;;;10.85;6.50;;;-0.90;99.90;;;;;;5058953;28;20348;-82
2024/01/08 06:26:12;;;;;;;8.10;5.25;;;-0.90;99.90;;;;;;5062187;28;20210;-80
2024/01/08 06:28:39;;;;;;;8.73;6.28;;;-1.00;99.90;;;;;;5061973;28;20224;-81
2024/01/08 06:31:08;;;;;;;9.98;5.55;;;-1.10;99.90;;;;;;5060119;28;20200;-81
2024/01/08 06:33:35;;;;;;;10.10;5.60;;;-1.00;99.90;;;;;;5059631;28;20256;-83
2024/01/08 06:36:02;;;;;;;11.15;6.45;;;-1.00;99.90;;;;;;5052717;28;20288;-80
2024/01/08 06:38:29;;;;;;;7.80;5.40;;;-0.90;99.90;;;;;;5051235;28;20297;-81
2024/01/08 06:40:57;;;;;;;6.97;4.30;;;-0.90;99.90;;;;;;5052267;28;20224;-80
2024/01/08 06:43:24;;;;;;;16.95;4.72;;;-0.90;99.90;;;;;;5052258;28;20299;-81
2024/01/08 06:45:51;;;;;;;5.05;4.13;;;-0.90;99.90;;;;;;5054699;28;20661;-81
2024/01/08 06:48:17;;;;;;;7.60;4.53;;;-0.90;99.90;;;;;;5053941;28;20205;-83
2024/01/08 06:50:46;;;;;;;7.05;3.83;;;-0.80;99.90;;;;;;5050943;28;20218;-81
2024/01/08 06:53:16;;;;;;;5.53;3.70;;;-0.70;99.90;;;;;;5051723;28;20224;-81
2024/01/08 06:55:43;;;;;;;8.85;4.00;;;-0.70;99.90;;;;;;5054013;28;20276;-82
2024/01/08 06:58:14;;;;;;;5.65;3.78;;;-0.70;99.90;;;;;;5050792;28;20239;-81
2024/01/08 07:00:41;;;;;;;6.75;4.40;;;-0.70;99.90;;;;;;5052374;28;20235;-81
2024/01/08 07:03:08;;;;;;;6.20;3.90;;;-0.70;99.90;;;;;;5050230;28;20311;-81
2024/01/08 07:05:34;;;;;;;5.82;4.72;;;-0.70;99.90;;;;;;5052870;28;20215;-80
2024/01/08 07:08:01;;;;;;;9.48;4.70;;;-0.70;99.90;;;;;;5054142;28;20210;-82
2024/01/08 07:10:30;;;;;;;7.22;4.93;;;-0.70;99.90;;;;;;5050083;28;20211;-82
2024/01/08 07:12:57;;;;;;;4.97;4.18;;;-0.70;99.90;;;;;;5046838;28;20771;-81
2024/01/08 07:15:38;;;;;;;8.05;4.78;;;-0.80;99.90;;;;;;5051529;28;21572;-81
2024/01/08 07:18:08;;;;;;;8.63;4.88;;;-0.90;99.90;;;;;;5051759;28;20211;-81
2024/01/08 07:20:36;;;;;;;10.77;5.07;;;-0.90;99.90;;;;;;5059697;28;20208;-81
2024/01/08 07:23:03;;;;;;;6.22;4.40;;;-0.90;99.90;;;;;;5059804;28;20307;-83
2024/01/08 07:25:30;;;;;;;8.85;5.35;;;-0.90;99.90;;;;;;5058439;28;20275;-82
2024/01/08 07:27:57;;;;;;;9.02;5.35;;;-0.80;99.90;;;;;;5059021;28;20218;-80
2024/01/08 07:30:24;;;;;;;8.10;6.03;;;-0.90;99.90;;;;;;5060169;28;20212;-80
2024/01/08 07:32:52;;;;;;;11.10;5.47;;;-0.80;99.90;;;;;;5058155;28;20650;-81
2024/01/08 07:35:19;;;;;;;6.60;4.90;;;-0.90;99.90;;;;;;5059989;28;20265;-82
2024/01/08 07:37:45;;;;;;;8.68;5.70;;;-0.80;99.90;;;;;;5057649;28;20208;-79
2024/01/08 07:40:14;;;;;;;7.35;5.15;;;-0.80;99.90;;;;;;5059240;28;20207;-81
2024/01/08 07:42:41;;;;;;;7.10;5.43;;;-0.80;99.90;;;;;;5058058;28;20226;-80
2024/01/08 07:45:08;;;;;;;9.43;6.07;;;-0.90;99.90;;;;;;5059065;28;20289;-81
2024/01/08 07:47:35;;;;;;;6.95;5.10;;;-0.80;99.90;;;;;;5058133;28;20202;-81
2024/01/08 07:50:03;;;;;;;7.72;5.18;;;-0.80;99.90;;;;;;5058079;28;20206;-81
2024/01/08 07:52:30;;;;;;;10.18;5.35;;;-0.90;99.90;;;;;;5059830;28;20242;-81
2024/01/08 07:54:57;;;;;;;7.10;4.90;;;-0.90;99.90;;;;;;5060948;28;20574;-78
2024/01/08 07:57:24;;;;;;;7.68;5.07;;;-0.90;99.90;;;;;;5061623;28;20210;-79
2024/01/08 07:59:51;;;;;;;9.43;5.40;;;-0.80;99.90;;;;;;5061824;28;20590;-81
2024/01/08 08:02:17;;;;;;;7.78;5.03;;;-0.90;99.90;;;;;;5064326;28;20228;-81
2024/01/08 08:04:44;;;;;;;6.18;4.05;;;-0.90;99.90;;;;;;5062389;28;20203;-80
2024/01/08 08:07:13;;;;;;;7.05;4.57;;;-0.80;99.90;;;;;;5070430;28;20214;-81
2024/01/08 08:09:41;;;;;;;8.45;4.70;;;-0.80;99.90;;;;;;5065158;28;20221;-80
2024/01/08 08:12:08;;;;;;;7.28;5.85;;;-0.90;99.90;;;;;;5061645;28;20225;-82
2024/01/08 08:14:36;;;;;;;8.02;5.35;;;-0.80;99.90;;;;;;5064331;28;20727;-80
2024/01/08 08:17:03;;;;;;;8.52;5.38;;;-0.80;99.90;;;;;;5062261;28;20211;-79
2024/01/08 08:19:30;;;;;;;7.93;5.47;;;-0.80;99.90;;;;;;5057341;28;20234;-80
2024/01/08 08:21:57;;;;;;;6.18;4.72;;;-0.80;99.90;;;;;;5065089;28;20241;-80
2024/01/08 08:24:25;;;;;;;8.48;4.78;;;-0.80;99.90;;;;;;5059633;28;20208;-80
2024/01/08 08:26:52;;;;;;;7.10;5.45;;;-0.80;99.90;;;;;;5054954;28;20234;-80
2024/01/08 08:29:19;;;;;;;9.00;5.78;;;-0.80;99.90;;;;;;5066192;28;20212;-81
2024/01/08 08:31:45;;;;;;;7.97;5.05;;;-0.80;99.90;;;;;;5065172;28;20748;-79
2024/01/08 08:34:12;;;;;;;9.68;5.15;;;-0.80;99.90;;;;;;5066280;28;20218;-80
2024/01/08 08:36:41;;;;;;;7.88;5.30;;;-0.80;99.90;;;;;;5058868;28;20212;-80
2024/01/08 08:39:08;;;;;;;11.07;5.22;;;-0.70;99.90;;;;;;5052797;28;20237;-81
2024/01/08 08:41:37;;;;;;;7.82;4.57;;;-0.70;99.90;;;;;;5057939;28;20230;-80
2024/01/08 08:44:04;;;;;;;7.47;5.50;;;-0.70;99.90;;;;;;5064983;28;20216;-80
2024/01/08 08:46:31;;;;;;;9.32;5.47;;;-0.70;99.90;;;;;;5061890;28;20631;-80
2024/01/08 08:48:57;;;;;;;8.68;5.68;;;-0.70;99.90;;;;;;5065887;28;20206;-80
2024/01/08 08:51:24;;;;;;;6.65;4.75;;;-0.70;99.90;;;;;;5068407;28;20304;-79
2024/01/08 08:53:51;;;;;;;7.45;4.95;;;-0.70;99.90;;;;;;5068165;28;20231;-79
2024/01/08 08:56:18;;;;;;;9.48;5.00;;;-0.70;99.90;;;;;;5067896;28;20211;-78
2024/01/08 08:58:46;;;;;;;6.15;4.05;;;-0.60;99.90;;;;;;5069406;28;20254;-79
2024/01/08 09:01:14;;;;;;;7.30;3.58;;;-0.60;99.90;;;;;;5071161;28;20210;-78
2024/01/08 09:03:41;;;;;;;6.70;3.40;;;-0.70;99.90;;;;;;5071749;28;20642;-80
2024/01/08 09:06:08;;;;;;;4.25;2.80;;;-0.70;99.90;;;;;;5073226;28;20231;-82
2024/01/08 09:08:35;;;;;;;4.28;2.33;;;-0.90;99.90;;;;;;5072589;28;20273;-78
2024/01/08 09:11:02;;;;;;;4.45;3.08;;;-0.90;99.90;;;;;;5073768;28;20233;-80
2024/01/08 09:13:29;;;;;;;3.30;2.30;;;-1.00;99.90;;;;;;5074401;28;20264;-79
2024/01/08 09:15:58;;;;;;;5.65;3.28;;;-1.00;99.90;;;;;;5068177;28;20249;-81
2024/01/08 09:18:26;;;;;;;3.95;2.45;;;-1.10;99.90;;;;;;5065049;28;20212;-80
2024/01/08 09:20:53;;;;;;;3.75;2.92;;;-1.10;99.90;;;;;;5065633;28;20630;-81
2024/01/08 09:23:21;;;;;;;8.27;2.40;;;-1.10;99.90;;;;;;5062315;28;20243;-80
2024/01/08 09:25:48;;;;;;;4.20;2.47;;;-1.10;99.90;;;;;;5061992;28;20333;-80
2024/01/08 09:28:15;;;;;;;5.90;2.72;;;-1.00;99.90;;;;;;5064171;28;20272;-80
2024/01/08 09:30:42;;;;;;;7.00;3.40;;;-1.00;99.90;;;;;;5065736;28;20249;-79
2024/01/08 09:33:10;;;;;;;4.90;3.22;;;-1.00;99.90;;;;;;5066100;28;20311;-80
2024/01/08 09:35:37;;;;;;;3.72;2.25;;;-1.00;99.90;;;;;;5066053;28;20652;-81
2024/01/08 09:38:05;;;;;;;4.57;2.85;;;-1.00;99.90;;;;;;5065948;28;20209;-81
2024/01/08 09:40:34;;;;;;;4.80;2.75;;;-0.90;99.90;;;;;;5066498;28;20212;-79
2024/01/08 09:43:07;;;;;;;4.13;2.10;;;-0.90;99.90;;;;;;5066073;28;20243;-80
2024/01/08 09:45:34;;;;;;;3.00;2.20;;;-0.90;99.90;;;;;;5066580;28;20215;-80
2024/01/08 09:48:02;;;;;;;4.80;2.13;;;-0.90;99.90;;;;;;5065870;28;20232;-82
2024/01/08 09:50:30;;;;;;;6.30;2.08;;;-1.00;99.90;;;;;;5063100;28;20294;-83
2024/01/08 09:52:57;;;;;;;4.47;2.00;;;-1.00;99.90;;;;;;5063865;28;20262;-82
2024/01/08 09:55:24;;;;;;;3.42;2.15;;;-1.00;99.90;;;;;;5061947;28;20235;-81
2024/01/08 09:57:51;;;;;;;4.43;2.63;;;-1.10;99.90;;;;;;5061349;28;20637;-84
2024/01/08 10:00:20;;;;;;;4.65;2.25;;;-1.10;99.90;;;;;;5061169;28;20277;-83
2024/01/08 10:02:55;;;;;;;4.53;1.85;;;-1.10;99.90;;;;;;5061490;28;20289;-82
2024/01/08 10:05:22;;;;;;;4.88;3.03;;;-1.10;99.90;;;;;;5063621;28;20213;-82
2024/01/08 10:07:51;;;;;;;3.03;1.70;;;-1.10;99.90;;;;;;5056597;28;20291;-82
2024/01/08 10:10:22;;;;;;;4.35;2.38;;;-1.10;99.90;;;;;;5063583;28;20270;-82
2024/01/08 10:12:51;;;;;;;6.85;2.33;;;-1.10;99.90;;;;;;5066261;28;20266;-83
2024/01/08 10:15:18;;;;;;;4.70;2.72;;;-1.00;99.90;;;;;;5073177;28;20207;-83
2024/01/08 10:17:48;;;;;;;3.38;2.42;;;-0.90;99.90;;;;;;5066286;28;20677;-81
2024/01/08 10:20:17;;;;;;;4.03;2.13;;;-0.90;98.20;;;;;;5060189;28;20220;-82
2024/01/08 10:22:45;;;;;;;4.40;2.13;;;-1.00;97.00;;;;;;5064034;28;20235;-82
2024/01/08 10:25:21;;;;;;;4.28;2.35;;;-0.90;99.90;;;;;;5062351;28;20334;-82
2024/01/08 10:27:47;;;;;;;4.32;2.50;;;-0.90;99.20;;;;;;5057929;28;20212;-83
2024/01/08 10:30:15;;;;;;;4.43;3.00;;;-0.90;99.50;;;;;;5058430;28;20204;-82
2024/01/08 10:32:42;;;;;;;6.72;2.67;;;-0.80;99.90;;;;;;5062835;28;20235;-80
2024/01/08 10:35:10;;;;;;;3.35;2.20;;;-0.80;99.90;;;;;;5062835;28;20307;-81
2024/01/08 10:37:39;;;;;;;4.65;2.35;;;-0.80;99.90;;;;;;5066103;28;20387;-82
2024/01/08 10:40:08;;;;;;;5.40;3.03;;;-0.70;99.90;;;;;;5061749;28;20238;-81
2024/01/08 10:42:38;;;;;;;5.38;2.80;;;-0.70;99.90;;;;;;5060429;28;20232;-81
2024/01/08 10:45:06;;;;;;;2.92;2.00;;;-0.60;99.90;;;;;;5062585;28;20219;-82
2024/01/08 10:47:38;;;;;;;9.07;2.78;;;-0.70;99.90;;;;;;5063541;28;20240;-83
2024/01/08 10:50:06;;;;;;;3.97;2.47;;;-0.70;99.90;;;;;;5062222;28;20703;-83
2024/01/08 10:52:39;;;;;;;3.95;1.90;;;-0.80;99.90;;;;;;5062576;28;20249;-83
2024/01/08 10:55:15;;;;;;;4.95;2.63;;;-0.70;99.90;;;;;;5060769;28;20265;-83
2024/01/08 10:57:51;;;;;;;4.80;2.25;;;-0.60;99.90;;;;;;5062799;28;20222;-82
2024/01/08 11:00:24;;;;;;;4.25;2.15;;;-0.60;98.50;;;;;;5070000;28;20257;-80
2024/01/08 11:02:57;;;;;;;3.10;2.00;;;-0.60;96.70;;;;;;5072291;28;20295;-80
2024/01/08 11:05:24;;;;;;;4.75;2.92;;;-0.60;98.20;;;;;;5076417;28;20210;-79
2024/01/08 11:07:51;;;;;;;4.53;2.33;;;-0.60;96.50;;;;;;5069034;28;20223;-79
2024/01/08 11:10:22;;;;;;;4.47;2.60;;;-0.60;96.20;;;;;;5076465;28;20187;-81
2024/01/08 11:12:55;;;;;;;4.38;2.65;;;-0.50;95.30;;;;;;5069218;28;20226;-79
2024/01/08 11:15:26;;;;;;;3.20;1.90;;;-0.40;95.20;;;;;;5075915;28;20218;-78
2024/01/08 11:17:53;;;;;;;4.30;1.80;;;-0.50;92.70;;;;;;5076672;28;20193;-77
2024/01/08 11:20:43;;;;;;;4.97;2.10;;;-0.50;91.50;;;;;;5075083;28;20090;-80
2024/01/08 11:23:32;;;;;;;4.80;2.60;;;0.30;95.00;;;;;;5069965;28;20229;-79
2024/01/08 11:26:00;;;;;;;3.90;2.05;;;-0.40;91.10;;;;;;5068819;28;20203;-80
2024/01/08 11:28:30;;;;;;;3.70;2.13;;;-0.20;89.70;;;;;;5072963;28;20196;-80
2024/01/08 11:31:38;;;;;;;3.67;2.10;;;0.10;90.80;;;;;;5079961;28;20441;-81
2024/01/08 11:34:55;;;;;;;5.40;2.40;;;0.40;87.90;;;;;;5075671;28;20252;-81
2024/01/08 11:37:44;;;;;;;5.00;2.10;;;1.60;87.30;;;;;;4992128;28;20188;-80
2024/01/08 11:40:15;;;;;;;3.90;1.90;;;2.70;83.70;;;;;;4990424;28;20202;-80
2024/01/08 11:42:43;;;;;;;4.13;2.37;;;3.60;77.20;;;;;;5040294;28;20517;-82
2024/01/08 11:45:12;;;;;;;4.43;2.83;;;4.10;74.50;;;;;;5075945;28;20513;-82
2024/01/08 11:47:39;;;;;;;3.50;2.20;;;5.40;72.70;;;;;;5077837;28;20454;-80
2024/01/08 11:50:07;;;;;;;4.17;2.30;;;6.20;67.10;;;;;;5081279;28;20452;-82
2024/01/08 11:52:37;;;;;;;4.20;2.57;;;5.70;65.10;;;;;;5079812;28;20541;-80
2024/01/08 11:55:05;;;;;;;2.87;1.83;;;5.20;64.60;;;;;;5074268;28;20667;-80
2024/01/08 11:57:32;;;;;;;4.83;2.40;;;4.70;62.50;;;;;;5078045;28;20449;-80
2024/01/08 11:59:59;;;;;;;3.40;2.40;;;3.60;62.30;;;;;;5077384;28;20442;-80
2024/01/08 12:02:28;;;;;;;4.77;3.27;;;3.60;65.40;;;;;;5082748;28;20531;-80
2024/01/08 12:04:56;;;;;;;6.03;2.53;;;4.20;65.00;;;;;;5073811;28;20449;-81
2024/01/08 12:07:24;;;;;;;3.30;2.53;;;5.00;63.00;;;;;;5067244;28;20476;-83
2024/01/08 12:09:51;;;;;;;6.17;2.97;;;6.10;62.00;;;;;;5058408;28;20469;-82
2024/01/08 12:12:19;;;;;;;5.17;2.20;;;7.00;58.90;;;;;;5071294;28;20527;-80
2024/01/08 12:14:46;;;;;;;3.13;2.10;;;7.10;57.90;;;;;;5077896;28;20471;-81
2024/01/08 12:17:15;;;;;;;4.23;2.13;;;8.20;57.20;;;;;;5077458;28;20436;-82
2024/01/08 12:19:44;;;;;;;3.60;2.63;;;8.00;56.20;;;;;;5077318;28;20456;-82
2024/01/08 12:22:12;;;;;;;3.53;2.40;;;7.80;54.50;;;;;;5077069;28;20500;-81
2024/01/08 12:24:40;;;;;;;4.10;2.30;;;7.10;54.40;;;;;;5075005;28;20484;-82
2024/01/08 12:27:08;;;;;;;3.20;2.43;;;5.70;54.50;;;;;;5058989;28;20482;-84
2024/01/08 12:29:38;;;;;;;3.00;2.33;;;4.50;55.50;;;;;;5063366;28;20475;-83
2024/01/08 12:32:08;;;;;;;4.50;2.37;;;4.10;56.80;;;;;;5067331;28;20462;-82
2024/01/08 12:34:37;;;;;;;2.83;2.23;;;3.70;58.30;;;;;;5060994;28;20999;-82
2024/01/08 12:37:05;;;;;;;3.73;2.30;;;3.20;58.50;;;;;;5060327;28;20457;-83
2024/01/08 12:39:34;;;;;;;4.33;2.27;;;2.40;58.70;;;;;;5067859;28;20428;-81
2024/01/08 12:42:03;;;;;;;4.83;2.47;;;1.80;59.80;;;;;;5076816;28;20474;-81
2024/01/08 12:44:30;;;;;;;3.60;2.00;;;1.20;61.10;;;;;;5068972;28;20472;-83
2024/01/08 12:46:57;;;;;;;3.85;2.33;;;1.20;62.60;;;;;;5073694;28;20439;-82
2024/01/08 12:49:25;;;;;;;9.43;2.50;;;1.20;63.00;;;;;;5076491;28;20250;-82
2024/01/08 12:51:52;;;;;;;3.53;2.23;;;1.20;62.90;;;;;;5074226;28;20500;-84
2024/01/08 12:54:20;;;;;;;5.43;2.70;;;1.00;63.60;;;;;;5072602;28;20468;-82
2024/01/08 12:56:48;;;;;;;8.40;2.70;;;1.10;64.10;;;;;;5072085;28;20461;-82